Time;durP1;ratioP1;P1;durP2;ratioP2;P2;SDS_P1;SDS_P2;PMS_P1;PMS_P2;Temp;Humidity;BMP_temperature;BMP_pressure;BME280_temperature;BME280_humidity;BME280_pressure;Samples;Min_cycle;Max_cycle;Signal;HPM_P1;HPM_P2
2022/03/30 00:00:06;;;;;;;88.75;42.75;;;;;;;;;;5017529;28;20064;-79
2022/03/30 00:02:32;;;;;;;84.35;39.38;;;;;;;;;;5037727;28;20029;-79
2022/03/30 00:04:57;;;;;;;81.07;38.50;;;;;;;;;;5043479;28;20492;-80
2022/03/30 00:07:24;;;;;;;71.35;32.35;;;;;;;;;;5034842;28;20107;-79
2022/03/30 00:09:50;;;;;;;63.40;24.92;;;;;;;;;;5034899;28;20474;-79
2022/03/30 00:12:16;;;;;;;54.65;25.35;;;;;;;;;;5034887;28;20108;-79
2022/03/30 00:14:42;;;;;;;65.05;30.77;;;;;;;;;;5034790;28;20485;-79
2022/03/30 00:17:07;;;;;;;69.60;32.40;;;;;;;;;;5034863;28;20030;-80
2022/03/30 00:19:33;;;;;;;67.10;30.13;;;;;;;;;;5034917;28;20029;-80
2022/03/30 00:21:58;;;;;;;75.07;31.88;;;;;;;;;;5034394;28;20034;-80
2022/03/30 00:24:26;;;;;;;64.00;31.67;;;;;;;;;;5027629;28;20045;-80
2022/03/30 00:26:52;;;;;;;68.25;27.45;;;;;;;;;;5035121;28;20029;-79
2022/03/30 00:29:17;;;;;;;61.95;27.60;;;;;;;;;;5034481;28;20044;-79
2022/03/30 00:31:43;;;;;;;66.32;27.73;;;;;;;;;;5017184;28;20112;-79
2022/03/30 00:34:08;;;;;;;53.55;21.83;;;;;;;;;;5034511;28;20435;-79
2022/03/30 00:36:34;;;;;;;62.72;30.35;;;;;;;;;;5034364;28;20112;-79
2022/03/30 00:38:59;;;;;;;58.45;28.17;;;;;;;;;;5016820;28;20040;-79
2022/03/30 00:41:27;;;;;;;60.95;26.70;;;;;;;;;;5034203;28;20049;-79
2022/03/30 00:43:52;;;;;;;70.93;32.88;;;;;;;;;;5036701;28;20013;-79
2022/03/30 00:46:18;;;;;;;75.82;35.45;;;;;;;;;;5042312;28;20073;-79
2022/03/30 00:48:43;;;;;;;79.43;37.78;;;;;;;;;;5000051;28;20041;-79
2022/03/30 00:51:09;;;;;;;80.82;39.58;;;;;;;;;;5033928;28;20030;-80
2022/03/30 00:53:34;;;;;;;80.40;39.65;;;;;;;;;;5034485;28;20033;-79
2022/03/30 00:56:00;;;;;;;75.57;38.92;;;;;;;;;;5016712;28;20474;-79
2022/03/30 00:58:26;;;;;;;79.50;39.88;;;;;;;;;;5016651;28;20033;-79
2022/03/30 01:01:07;;;;;;;82.50;41.35;;;;;;;;;;5132661;27;20398;-81
2022/03/30 01:03:32;;;;;;;76.78;37.05;;;;;;;;;;5098014;28;20122;-81
2022/03/30 01:05:58;;;;;;;76.63;37.60;;;;;;;;;;5142605;28;20035;-81
2022/03/30 01:08:24;;;;;;;86.35;38.20;;;;;;;;;;5132541;27;20077;-81
2022/03/30 01:10:49;;;;;;;74.20;36.63;;;;;;;;;;5097494;28;20125;-80
2022/03/30 01:13:15;;;;;;;71.88;34.38;;;;;;;;;;5131270;28;20106;-80
2022/03/30 01:15:40;;;;;;;77.97;35.58;;;;;;;;;;5131207;28;20031;-80
2022/03/30 01:18:06;;;;;;;82.18;39.13;;;;;;;;;;5132307;27;20031;-80
2022/03/30 01:20:31;;;;;;;53.60;23.63;;;;;;;;;;5132433;27;20436;-80
2022/03/30 01:22:57;;;;;;;73.75;33.28;;;;;;;;;;5131062;28;20028;-81
2022/03/30 01:25:23;;;;;;;73.20;35.67;;;;;;;;;;5134998;28;20015;-80
2022/03/30 01:33:16;;;;;;;73.32;36.08;;;;;;;;;;5116318;28;20079;-81
2022/03/30 01:35:41;;;;;;;70.22;33.38;;;;;;;;;;5132466;27;20122;-82
2022/03/30 01:38:07;;;;;;;65.65;32.63;;;;;;;;;;5132207;28;20424;-81
2022/03/30 01:40:35;;;;;;;72.10;34.30;;;;;;;;;;5132061;27;20046;-80
2022/03/30 01:43:01;;;;;;;74.30;36.80;;;;;;;;;;5130653;27;20046;-81
2022/03/30 01:45:27;;;;;;;75.88;37.17;;;;;;;;;;5131751;28;20031;-80
2022/03/30 01:47:59;;;;;;;80.50;40.05;;;;;;;;;;5141473;28;20027;-80
2022/03/30 01:50:26;;;;;;;76.10;37.63;;;;;;;;;;5130573;28;20640;-81
2022/03/30 01:52:52;;;;;;;80.43;37.63;;;;;;;;;;5131671;27;20027;-81
2022/03/30 01:55:17;;;;;;;71.60;37.03;;;;;;;;;;5130961;28;20439;-81
2022/03/30 01:57:43;;;;;;;80.93;37.95;;;;;;;;;;5131813;27;20042;-80
2022/03/30 02:00:10;;;;;;;76.57;35.30;;;;;;;;;;5130008;27;20093;-80
2022/03/30 02:02:37;;;;;;;73.32;36.10;;;;;;;;;;5131260;27;20028;-81
2022/03/30 02:05:02;;;;;;;66.70;32.88;;;;;;;;;;5130463;28;20028;-80
2022/03/30 02:07:28;;;;;;;63.40;31.35;;;;;;;;;;5140085;28;20083;-80
2022/03/30 02:09:53;;;;;;;56.22;26.85;;;;;;;;;;5135434;27;20038;-80
2022/03/30 02:12:19;;;;;;;60.38;26.98;;;;;;;;;;5117456;28;20151;-80
2022/03/30 02:14:44;;;;;;;53.45;25.58;;;;;;;;;;5117624;28;20028;-80
2022/03/30 02:17:10;;;;;;;54.15;20.20;;;;;;;;;;5116126;28;20036;-80
2022/03/30 02:19:36;;;;;;;45.55;21.70;;;;;;;;;;5116222;28;20477;-80
2022/03/30 02:22:01;;;;;;;46.22;19.10;;;;;;;;;;5099283;28;20027;-80
2022/03/30 02:24:27;;;;;;;48.72;17.65;;;;;;;;;;5117640;28;20100;-80
2022/03/30 02:26:53;;;;;;;40.08;16.83;;;;;;;;;;5118625;27;20476;-80
2022/03/30 02:29:18;;;;;;;47.45;18.80;;;;;;;;;;5124100;28;20122;-80
2022/03/30 02:31:44;;;;;;;34.78;14.40;;;;;;;;;;5117204;28;20035;-81
2022/03/30 02:34:10;;;;;;;35.17;15.73;;;;;;;;;;5117287;28;20031;-80
2022/03/30 02:36:36;;;;;;;33.65;14.27;;;;;;;;;;5115890;28;20429;-80
2022/03/30 02:39:03;;;;;;;42.50;14.77;;;;;;;;;;5115853;28;20035;-81
2022/03/30 02:41:29;;;;;;;44.30;18.30;;;;;;;;;;5116114;28;20028;-80
2022/03/30 02:43:54;;;;;;;45.95;12.73;;;;;;;;;;5117250;28;20027;-80
2022/03/30 02:46:20;;;;;;;42.25;9.88;;;;;;;;;;5116354;28;20043;-80
2022/03/30 02:48:45;;;;;;;31.83;9.93;;;;;;;;;;5124455;28;20036;-80
2022/03/30 02:51:11;;;;;;;25.95;9.07;;;;;;;;;;5102062;28;20032;-80
2022/03/30 02:53:36;;;;;;;22.90;9.32;;;;;;;;;;5098606;28;20038;-80
2022/03/30 02:56:02;;;;;;;32.92;10.98;;;;;;;;;;5116632;28;20040;-80
2022/03/30 02:58:28;;;;;;;33.33;9.65;;;;;;;;;;5116712;28;20027;-80
2022/03/30 03:00:56;;;;;;;31.30;11.13;;;;;;;;;;5098374;28;20448;-81
2022/03/30 03:03:22;;;;;;;35.03;11.90;;;;;;;;;;5115471;28;20039;-80
2022/03/30 03:05:48;;;;;;;38.20;11.50;;;;;;;;;;5098490;28;20020;-80
2022/03/30 03:08:13;;;;;;;33.30;11.30;;;;;;;;;;5117935;28;20073;-80
2022/03/30 03:10:44;;;;;;;32.63;10.77;;;;;;;;;;5126822;28;20028;-80
2022/03/30 03:13:09;;;;;;;31.13;10.05;;;;;;;;;;5116758;28;20031;-80
2022/03/30 03:15:36;;;;;;;39.53;10.32;;;;;;;;;;5115083;28;20030;-81
2022/03/30 03:18:03;;;;;;;34.22;9.50;;;;;;;;;;5098633;28;20032;-80
2022/03/30 03:20:29;;;;;;;35.72;9.40;;;;;;;;;;5098291;28;20054;-81
2022/03/30 03:22:55;;;;;;;32.15;8.85;;;;;;;;;;5114349;28;20440;-80
2022/03/30 03:25:21;;;;;;;25.70;7.82;;;;;;;;;;5115047;28;20474;-79
2022/03/30 03:27:47;;;;;;;27.30;8.45;;;;;;;;;;5097971;28;20019;-80
2022/03/30 03:30:13;;;;;;;31.70;8.75;;;;;;;;;;5123745;28;20444;-80
2022/03/30 03:32:39;;;;;;;35.88;7.93;;;;;;;;;;5116818;28;20018;-81
2022/03/30 03:35:04;;;;;;;43.25;8.18;;;;;;;;;;5114944;28;20024;-80
2022/03/30 03:37:30;;;;;;;32.85;8.07;;;;;;;;;;5114892;28;20023;-81
2022/03/30 03:39:55;;;;;;;32.03;8.60;;;;;;;;;;5114613;28;20085;-80
2022/03/30 03:42:21;;;;;;;29.02;8.95;;;;;;;;;;5114770;28;20051;-80
2022/03/30 03:44:47;;;;;;;32.45;9.55;;;;;;;;;;5097420;28;20032;-80
2022/03/30 03:47:12;;;;;;;39.72;9.68;;;;;;;;;;5097613;28;20114;-81
2022/03/30 03:49:38;;;;;;;41.47;11.68;;;;;;;;;;5098619;28;20035;-80
2022/03/30 03:52:04;;;;;;;39.88;11.25;;;;;;;;;;5124233;28;20023;-79
2022/03/30 03:54:30;;;;;;;37.67;10.85;;;;;;;;;;5114356;28;20118;-80
2022/03/30 03:56:55;;;;;;;26.95;9.43;;;;;;;;;;5115573;28;20157;-79
2022/03/30 03:59:21;;;;;;;43.88;8.95;;;;;;;;;;5115034;27;20099;-81
2022/03/30 04:01:46;;;;;;;36.00;9.40;;;;;;;;;;5114595;28;20472;-80
2022/03/30 04:04:12;;;;;;;26.05;8.63;;;;;;;;;;5115499;28;20020;-81
2022/03/30 04:06:38;;;;;;;30.02;7.68;;;;;;;;;;5115314;28;20023;-80
2022/03/30 04:09:03;;;;;;;29.67;7.55;;;;;;;;;;5115649;28;20030;-80
2022/03/30 04:11:30;;;;;;;28.75;8.25;;;;;;;;;;5124293;28;20116;-78
2022/03/30 04:13:56;;;;;;;25.83;7.72;;;;;;;;;;5114501;28;20448;-80
2022/03/30 04:16:21;;;;;;;35.85;9.30;;;;;;;;;;5097071;28;20070;-78
2022/03/30 04:18:47;;;;;;;27.58;8.57;;;;;;;;;;5115046;28;20032;-77
2022/03/30 04:21:12;;;;;;;36.58;11.57;;;;;;;;;;5113874;28;20032;-79
2022/03/30 04:23:38;;;;;;;40.63;11.48;;;;;;;;;;5115057;28;20035;-79
2022/03/30 04:26:04;;;;;;;36.33;12.32;;;;;;;;;;5115550;28;20027;-78
2022/03/30 04:28:29;;;;;;;45.22;11.70;;;;;;;;;;5115332;28;20547;-78
2022/03/30 04:30:55;;;;;;;36.38;10.88;;;;;;;;;;5115248;28;20364;-76
2022/03/30 04:33:20;;;;;;;31.17;10.98;;;;;;;;;;5121564;28;20130;-78
2022/03/30 04:35:46;;;;;;;43.40;10.65;;;;;;;;;;5114020;28;20069;-77
2022/03/30 04:38:11;;;;;;;41.33;10.35;;;;;;;;;;5114916;28;20027;-77
2022/03/30 04:40:36;;;;;;;28.67;9.32;;;;;;;;;;5096672;28;20047;-77
2022/03/30 04:43:02;;;;;;;37.33;10.27;;;;;;;;;;5114765;28;20140;-77
2022/03/30 04:45:28;;;;;;;35.80;10.85;;;;;;;;;;5114362;28;20062;-77
2022/03/30 04:47:53;;;;;;;30.60;10.18;;;;;;;;;;5110209;28;20035;-76
2022/03/30 04:50:20;;;;;;;36.40;10.38;;;;;;;;;;5108783;28;20051;-76
2022/03/30 04:52:45;;;;;;;43.35;10.82;;;;;;;;;;5114832;28;20027;-77
2022/03/30 04:55:11;;;;;;;46.90;11.82;;;;;;;;;;5112374;28;20051;-77
2022/03/30 04:57:37;;;;;;;39.13;11.10;;;;;;;;;;5111687;28;20066;-79
2022/03/30 05:00:04;;;;;;;39.38;11.95;;;;;;;;;;5113041;28;20043;-75
2022/03/30 05:02:32;;;;;;;49.55;13.63;;;;;;;;;;5114364;28;20035;-78
2022/03/30 05:05:03;;;;;;;62.33;15.13;;;;;;;;;;5108753;28;20043;-77
2022/03/30 05:07:29;;;;;;;82.80;21.00;;;;;;;;;;5097742;28;20603;-75
2022/03/30 05:09:54;;;;;;;97.88;22.10;;;;;;;;;;5104696;28;20032;-79
2022/03/30 05:12:20;;;;;;;77.53;21.90;;;;;;;;;;5142529;27;20016;-76
2022/03/30 05:14:51;;;;;;;67.15;19.23;;;;;;;;;;5144223;27;20023;-79
2022/03/30 05:17:16;;;;;;;60.17;18.92;;;;;;;;;;5128573;28;20313;-79
2022/03/30 05:19:45;;;;;;;60.65;18.30;;;;;;;;;;5113243;28;20039;-81
2022/03/30 05:22:11;;;;;;;51.25;17.25;;;;;;;;;;5095074;28;20054;-81
2022/03/30 05:24:37;;;;;;;67.90;17.70;;;;;;;;;;5113996;28;20028;-78
2022/03/30 05:27:03;;;;;;;58.88;17.25;;;;;;;;;;5112724;28;20032;-79
2022/03/30 05:29:29;;;;;;;52.78;17.50;;;;;;;;;;5097934;28;20495;-78
2022/03/30 05:31:58;;;;;;;52.78;15.75;;;;;;;;;;5114553;28;20039;-80
2022/03/30 05:37:59;;;;;;;45.38;12.98;;;;;;;;;;5130221;22;20060;-80
2022/03/30 05:40:31;;;;;;;43.75;12.43;;;;;;;;;;5032541;28;20043;-76
2022/03/30 05:42:57;;;;;;;44.22;12.48;;;;;;;;;;5081143;28;20097;-77
2022/03/30 05:45:23;;;;;;;37.85;12.05;;;;;;;;;;5089514;28;20401;-77
2022/03/30 05:47:51;;;;;;;50.55;12.45;;;;;;;;;;5079639;28;20028;-79
2022/03/30 05:50:17;;;;;;;35.88;12.13;;;;;;;;;;5073006;28;20035;-79
2022/03/30 05:52:43;;;;;;;44.70;13.55;;;;;;;;;;5092834;28;20048;-81
2022/03/30 05:55:09;;;;;;;42.08;12.65;;;;;;;;;;5101990;28;20377;-79
2022/03/30 05:57:35;;;;;;;46.33;13.68;;;;;;;;;;5095126;28;20097;-79
2022/03/30 06:00:01;;;;;;;36.28;12.65;;;;;;;;;;5091221;28;20154;-79
2022/03/30 06:02:27;;;;;;;35.58;12.18;;;;;;;;;;5093027;28;20028;-78
2022/03/30 06:04:53;;;;;;;34.15;10.73;;;;;;;;;;5093566;28;20031;-80
2022/03/30 06:07:19;;;;;;;44.70;12.40;;;;;;;;;;5093720;28;20461;-79
2022/03/30 06:09:44;;;;;;;37.83;11.75;;;;;;;;;;5094618;28;20042;-82
2022/03/30 06:12:11;;;;;;;38.60;11.75;;;;;;;;;;5093647;28;20457;-80
2022/03/30 06:14:36;;;;;;;39.03;12.15;;;;;;;;;;5099374;28;20047;-77
2022/03/30 06:17:03;;;;;;;42.72;11.90;;;;;;;;;;5066508;28;20035;-80
2022/03/30 06:19:30;;;;;;;47.63;13.50;;;;;;;;;;5060873;28;20036;-79
2022/03/30 06:21:55;;;;;;;40.67;12.65;;;;;;;;;;5094462;28;20578;-79
2022/03/30 06:24:21;;;;;;;40.45;11.30;;;;;;;;;;5098633;28;20028;-79
2022/03/30 06:26:47;;;;;;;54.22;10.80;;;;;;;;;;5075938;28;20120;-78
2022/03/30 06:29:13;;;;;;;36.40;9.95;;;;;;;;;;5094897;28;20028;-75
2022/03/30 06:31:38;;;;;;;38.00;10.23;;;;;;;;;;5061459;28;20114;-80
2022/03/30 06:34:03;;;;;;;37.33;9.57;;;;;;;;;;5081731;28;20043;-77
2022/03/30 06:36:29;;;;;;;42.00;10.30;;;;;;;;;;5101570;28;20048;-79
2022/03/30 06:38:55;;;;;;;37.25;9.32;;;;;;;;;;5078186;28;20028;-79
2022/03/30 06:41:44;;;;;;;45.80;12.93;;;;;;;;;;5096444;28;20031;-80
2022/03/30 06:44:18;;;;;;;41.47;10.10;;;;;;;;;;5079078;28;20093;-80
2022/03/30 06:46:44;;;;;;;38.55;10.98;;;;;;;;;;5078197;28;20047;-81
2022/03/30 06:49:10;;;;;;;45.45;12.20;;;;;;;;;;5076825;28;20449;-80
2022/03/30 06:51:54;;;;;;;33.40;9.13;;;;;;;;;;5077859;28;20036;-81
2022/03/30 06:54:34;;;;;;;38.85;10.18;;;;;;;;;;5071318;28;20047;-81
2022/03/30 06:57:00;;;;;;;30.38;9.57;;;;;;;;;;5093986;28;20032;-77
2022/03/30 06:59:27;;;;;;;26.42;9.00;;;;;;;;;;5073484;28;20465;-77
2022/03/30 07:01:54;;;;;;;35.97;8.70;;;;;;;;;;5071899;28;20023;-77
2022/03/30 07:04:28;;;;;;;33.17;8.60;;;;;;;;;;5038361;28;20043;-80
2022/03/30 07:12:25;;;;;;;30.23;8.35;;;;;;;;;;5092429;28;20077;-77
2022/03/30 07:14:53;;;;;;;33.53;8.35;;;;;;;;;;5075879;28;20039;-79
2022/03/30 07:17:19;;;;;;;32.85;8.82;;;;;;;;;;5099322;28;20491;-75
2022/03/30 07:19:45;;;;;;;35.45;9.70;;;;;;;;;;5090453;28;20059;-77
2022/03/30 07:25:49;;;;;;;34.97;12.65;;;;;;;;;;5238460;22;20052;-76
2022/03/30 07:28:16;;;;;;;38.72;8.95;;;;;;;;;;5066068;28;20027;-74
2022/03/30 07:30:43;;;;;;;32.50;7.97;;;;;;;;;;5071793;28;20040;-77
2022/03/30 07:33:08;;;;;;;24.50;8.70;;;;;;;;;;5054041;28;20428;-79
2022/03/30 07:35:35;;;;;;;30.90;9.05;;;;;;;;;;5071144;28;20040;-78
2022/03/30 07:38:00;;;;;;;32.63;10.45;;;;;;;;;;5043124;28;20033;-80
2022/03/30 07:40:27;;;;;;;34.35;8.30;;;;;;;;;;5056575;28;20039;-79
2022/03/30 07:42:54;;;;;;;39.30;7.60;;;;;;;;;;5071843;28;20059;-80
2022/03/30 07:45:19;;;;;;;32.30;7.85;;;;;;;;;;5088057;28;20028;-81
2022/03/30 07:47:46;;;;;;;36.03;9.85;;;;;;;;;;5070886;28;20090;-79
2022/03/30 07:50:12;;;;;;;42.47;9.48;;;;;;;;;;5053284;28;20649;-79
2022/03/30 07:52:40;;;;;;;47.05;9.50;;;;;;;;;;5053059;28;20027;-80
2022/03/30 07:55:08;;;;;;;44.10;10.20;;;;;;;;;;5055055;28;20021;-80
2022/03/30 07:57:36;;;;;;;48.72;9.63;;;;;;;;;;5059190;28;20077;-79
2022/03/30 08:00:03;;;;;;;44.45;9.35;;;;;;;;;;5055116;28;20432;-79
2022/03/30 08:02:29;;;;;;;37.38;9.00;;;;;;;;;;5070797;28;20024;-78
2022/03/30 08:04:55;;;;;;;44.47;9.57;;;;;;;;;;5047610;28;20035;-79
2022/03/30 08:07:21;;;;;;;42.20;14.70;;;;;;;;;;5187693;22;20063;-79
2022/03/30 08:09:47;;;;;;;35.90;8.35;;;;;;;;;;5100203;28;20127;-78
2022/03/30 08:12:22;;;;;;;47.00;15.88;;;;;;;;;;5082694;28;20119;-77
2022/03/30 08:14:48;;;;;;;32.30;10.57;;;;;;;;;;5076265;28;20027;-75
2022/03/30 08:17:14;;;;;;;33.17;8.50;;;;;;;;;;5092793;28;20028;-77
2022/03/30 08:19:39;;;;;;;43.58;8.70;;;;;;;;;;5084759;28;20052;-78
2022/03/30 08:24:53;;;;;;;44.83;10.82;;;;;;;;;;5104817;28;20047;-79
2022/03/30 08:27:23;;;;;;;38.42;9.48;;;;;;;;;;5090289;28;20029;-78
2022/03/30 08:29:49;;;;;;;35.13;7.25;;;;;;;;;;5054955;28;20445;-82
2022/03/30 08:32:16;;;;;;;38.83;10.10;;;;;;;;;;5113660;27;20153;-78
2022/03/30 08:34:45;;;;;;;33.67;7.38;;;;;;;;;;5099595;28;20024;-81
2022/03/30 08:37:10;;;;;;;41.37;8.40;;;;;;;;;;5084486;28;20450;-80
2022/03/30 08:39:36;;;;;;;39.67;8.98;;;;;;;;;;5101419;28;20036;-79
2022/03/30 08:42:06;;;;;;;38.67;14.25;;;;;;;;;;5114838;27;20028;-81
2022/03/30 08:44:32;;;;;;;43.05;12.45;;;;;;;;;;5079321;28;20032;-77
2022/03/30 08:49:56;;;;;;;43.42;9.35;;;;;;;;;;5082497;22;20670;-79
2022/03/30 08:52:55;;;;;;;51.97;11.57;;;;;;;;;;5061315;28;20029;-80
2022/03/30 08:55:38;;;;;;;47.45;14.35;;;;;;;;;;4970844;28;20034;-78
2022/03/30 08:58:05;;;;;;;31.45;8.27;;;;;;;;;;5048730;22;20033;-76
2022/03/30 09:00:39;;;;;;;38.38;10.90;;;;;;;;;;5084193;28;20019;-83
2022/03/30 09:03:07;;;;;;;49.78;17.13;;;;;;;;;;5101552;28;20119;-79
2022/03/30 09:05:35;;;;;;;39.55;8.13;;;;;;;;;;5079395;28;20058;-78
2022/03/30 09:08:24;;;;;;;42.78;9.73;;;;;;;;;;5069363;28;20032;-76
2022/03/30 09:10:55;;;;;;;38.50;10.23;;;;;;;;;;5076301;28;20032;-78
2022/03/30 09:14:01;;;;;;;42.65;8.82;;;;;;;;;;5084788;28;20031;-76
2022/03/30 09:16:49;;;;;;;45.90;13.70;;;;;;;;;;5062776;28;20032;-76
2022/03/30 09:19:15;;;;;;;39.95;9.35;;;;;;;;;;5069731;28;20059;-77
2022/03/30 09:21:46;;;;;;;35.28;8.90;;;;;;;;;;5095185;28;20502;-81
2022/03/30 09:30:55;;;;;;;57.38;21.98;;;;;;;;;;5091901;22;20558;-80
2022/03/30 09:33:47;;;;;;;31.15;8.05;;;;;;;;;;5056432;28;20086;-77
2022/03/30 09:36:39;;;;;;;40.67;9.38;;;;;;;;;;5095150;28;20043;-78
2022/03/30 09:39:30;;;;;;;36.25;6.53;;;;;;;;;;5077337;28;20016;-79
2022/03/30 09:41:58;;;;;;;46.88;12.15;;;;;;;;;;5066095;28;20140;-83
2022/03/30 09:44:24;;;;;;;51.92;11.52;;;;;;;;;;5092023;28;20036;-79
2022/03/30 09:47:06;;;;;;;59.47;6.63;;;;;;;;;;5074404;28;20448;-78
2022/03/30 09:49:47;;;;;;;50.03;8.95;;;;;;;;;;5092735;28;20025;-79
2022/03/30 09:52:43;;;;;;;46.95;8.40;;;;;;;;;;5061610;28;20465;-78
2022/03/30 09:55:15;;;;;;;65.00;14.10;;;;;;;;;;5055619;28;20081;-78
2022/03/30 09:57:41;;;;;;;44.50;10.45;;;;;;;;;;5053539;28;20111;-81
2022/03/30 10:00:24;;;;;;;53.05;15.85;;;;;;;;;;5065402;28;20125;-78
2022/03/30 10:02:51;;;;;;;76.50;12.93;;;;;;;;;;5055250;28;20028;-85
2022/03/30 10:05:21;;;;;;;55.28;9.98;;;;;;;;;;5040709;28;20213;-83
2022/03/30 10:07:50;;;;;;;39.38;6.65;;;;;;;;;;5091563;28;20114;-79
2022/03/30 10:10:17;;;;;;;51.60;12.97;;;;;;;;;;5056915;28;20190;-77
2022/03/30 10:12:44;;;;;;;45.72;10.93;;;;;;;;;;5056360;28;20037;-79
2022/03/30 10:15:10;;;;;;;43.80;7.82;;;;;;;;;;5045849;28;20050;-77
2022/03/30 10:17:36;;;;;;;50.15;6.88;;;;;;;;;;5061373;28;20186;-78
2022/03/30 10:20:03;;;;;;;49.45;9.70;;;;;;;;;;5067171;28;20036;-82
2022/03/30 10:22:38;;;;;;;38.40;7.82;;;;;;;;;;5059315;28;20029;-81
2022/03/30 10:25:28;;;;;;;40.28;7.20;;;;;;;;;;5092511;28;20130;-78
2022/03/30 10:27:56;;;;;;;35.47;8.43;;;;;;;;;;5075644;28;20040;-79
2022/03/30 10:30:46;;;;;;;41.10;7.22;;;;;;;;;;5075053;28;20040;-79
2022/03/30 10:33:11;;;;;;;42.65;8.98;;;;;;;;;;5057468;28;20545;-79
2022/03/30 10:35:51;;;;;;;49.45;9.15;;;;;;;;;;5037557;28;20064;-79
2022/03/30 10:38:22;;;;;;;33.38;6.90;;;;;;;;;;5059426;28;20028;-78
2022/03/30 10:40:48;;;;;;;46.72;10.02;;;;;;;;;;5058116;28;20032;-79
2022/03/30 10:43:27;;;;;;;51.83;9.70;;;;;;;;;;5059364;28;20461;-84
2022/03/30 10:45:57;;;;;;;42.20;6.17;;;;;;;;;;5056708;28;20028;-82
2022/03/30 10:48:29;;;;;;;42.55;7.90;;;;;;;;;;5062306;28;20025;-79
2022/03/30 10:51:03;;;;;;;55.40;15.10;;;;;;;;;;5055630;28;20617;-81
2022/03/30 10:53:34;;;;;;;53.95;11.73;;;;;;;;;;5063824;28;20083;-82
2022/03/30 10:56:15;;;;;;;39.53;6.82;;;;;;;;;;5074230;28;20028;-80
2022/03/30 10:58:49;;;;;;;51.60;13.90;;;;;;;;;;5058637;28;20096;-80
2022/03/30 11:01:16;;;;;;;49.42;10.15;;;;;;;;;;5053422;28;20032;-79
2022/03/30 11:04:13;;;;;;;58.50;14.88;;;;;;;;;;5058857;28;20147;-79
2022/03/30 11:06:50;;;;;;;34.53;8.25;;;;;;;;;;5057176;28;20485;-79
2022/03/30 11:09:15;;;;;;;45.63;6.80;;;;;;;;;;5055132;28;20047;-79
2022/03/30 11:11:43;;;;;;;42.78;12.50;;;;;;;;;;5056410;28;20335;-81
2022/03/30 11:14:29;;;;;;;40.08;8.10;;;;;;;;;;5022367;28;20033;-79
2022/03/30 11:16:56;;;;;;;44.20;8.65;;;;;;;;;;5051423;28;20416;-79
2022/03/30 11:19:47;;;;;;;48.47;7.97;;;;;;;;;;5061338;28;20025;-78
2022/03/30 11:22:13;;;;;;;50.22;9.95;;;;;;;;;;5058961;28;20040;-77
2022/03/30 11:24:41;;;;;;;44.63;7.00;;;;;;;;;;5073847;28;20025;-80
2022/03/30 11:27:07;;;;;;;35.42;6.95;;;;;;;;;;5054347;28;20063;-80
2022/03/30 11:30:00;;;;;;;39.78;6.85;;;;;;;;;;5074684;28;20414;-78
2022/03/30 11:32:30;;;;;;;31.23;7.07;;;;;;;;;;5072252;28;20033;-80
2022/03/30 11:34:57;;;;;;;36.40;7.05;;;;;;;;;;5078737;28;20039;-78
2022/03/30 11:37:29;;;;;;;37.20;7.47;;;;;;;;;;5086178;28;20201;-79
2022/03/30 11:40:02;;;;;;;55.80;9.43;;;;;;;;;;5102183;28;20361;-81
2022/03/30 11:42:27;;;;;;;45.63;6.85;;;;;;;;;;5060160;28;20016;-81
2022/03/30 11:47:37;;;;;;;36.97;7.82;;;;;;;;;;5070756;28;20031;-81
2022/03/30 11:50:03;;;;;;;41.47;9.25;;;;;;;;;;5104642;28;20032;-81
2022/03/30 11:52:28;;;;;;;32.20;6.60;;;;;;;;;;5105529;28;20025;-80
2022/03/30 11:54:54;;;;;;;47.25;8.48;;;;;;;;;;5072845;28;20085;-80
2022/03/30 11:57:21;;;;;;;66.20;13.70;;;;;;;;;;5073337;28;20032;-79
2022/03/30 12:00:00;;;;;;;46.42;10.05;;;;;;;;;;5090311;28;20483;-81
2022/03/30 12:02:26;;;;;;;30.20;6.37;;;;;;;;;;5077233;28;20066;-79
2022/03/30 12:04:52;;;;;;;41.67;7.15;;;;;;;;;;5090343;28;20279;-81
2022/03/30 12:07:19;;;;;;;41.92;8.70;;;;;;;;;;5107396;28;20111;-81
2022/03/30 12:09:48;;;;;;;44.30;10.40;;;;;;;;;;5090301;28;20032;-82
2022/03/30 12:12:36;;;;;;;41.38;6.80;;;;;;;;;;5090271;28;20078;-80
2022/03/30 12:15:11;;;;;;;40.10;7.93;;;;;;;;;;5074849;28;20081;-82
2022/03/30 12:17:37;;;;;;;49.72;7.40;;;;;;;;;;5074547;28;20035;-82
2022/03/30 12:20:05;;;;;;;45.55;7.25;;;;;;;;;;5107702;28;20024;-78
2022/03/30 12:22:31;;;;;;;39.92;7.40;;;;;;;;;;5060494;28;20071;-80
2022/03/30 12:24:57;;;;;;;40.40;7.72;;;;;;;;;;5090495;28;20401;-80
2022/03/30 12:27:23;;;;;;;39.85;7.25;;;;;;;;;;5106994;28;20036;-79
2022/03/30 12:29:49;;;;;;;38.58;9.48;;;;;;;;;;5074067;28;20360;-79
2022/03/30 12:32:15;;;;;;;44.47;9.20;;;;;;;;;;5089915;28;20024;-78
2022/03/30 12:34:46;;;;;;;37.58;9.15;;;;;;;;;;5089900;28;20021;-78
2022/03/30 12:37:22;;;;;;;38.72;7.18;;;;;;;;;;5106562;28;20020;-80
2022/03/30 12:39:47;;;;;;;35.33;10.80;;;;;;;;;;5072561;28;20279;-80
2022/03/30 12:42:24;;;;;;;36.50;7.80;;;;;;;;;;5096851;28;20111;-81
2022/03/30 12:44:51;;;;;;;43.28;7.75;;;;;;;;;;5073725;28;20028;-79
2022/03/30 12:47:34;;;;;;;38.75;7.97;;;;;;;;;;5089988;28;20025;-78
2022/03/30 12:50:04;;;;;;;44.08;12.05;;;;;;;;;;5070933;28;20033;-82
2022/03/30 12:52:35;;;;;;;40.55;8.15;;;;;;;;;;5089280;28;20027;-78
2022/03/30 12:55:28;;;;;;;39.08;10.23;;;;;;;;;;5106095;28;20099;-80
2022/03/30 12:57:55;;;;;;;35.20;10.10;;;;;;;;;;5104574;28;20074;-77
2022/03/30 13:00:35;;;;;;;44.00;11.00;;;;;;;;;;5074325;28;20017;-79
2022/03/30 13:03:25;;;;;;;42.28;8.40;;;;;;;;;;5079498;28;20028;-77
2022/03/30 13:06:12;;;;;;;45.10;10.10;;;;;;;;;;5100138;28;20497;-79
2022/03/30 13:08:38;;;;;;;24.33;6.32;;;;;;;;;;5104752;28;20098;-77
2022/03/30 13:11:06;;;;;;;38.15;6.65;;;;;;;;;;5089497;28;20032;-77
2022/03/30 13:13:40;;;;;;;31.98;7.32;;;;;;;;;;5072928;28;20032;-77
2022/03/30 13:16:19;;;;;;;39.35;8.85;;;;;;;;;;5073800;28;20476;-77
2022/03/30 13:19:07;;;;;;;47.95;8.23;;;;;;;;;;5088590;28;20021;-77
2022/03/30 13:21:36;;;;;;;30.48;8.43;;;;;;;;;;5072651;28;20051;-77
2022/03/30 13:24:24;;;;;;;30.63;7.07;;;;;;;;;;5078499;28;20461;-77
2022/03/30 13:26:53;;;;;;;33.65;7.57;;;;;;;;;;5074008;28;20031;-77
2022/03/30 13:29:18;;;;;;;34.70;6.88;;;;;;;;;;5073710;28;20448;-77
2022/03/30 13:31:46;;;;;;;40.30;6.63;;;;;;;;;;5088745;28;20128;-77
2022/03/30 13:34:12;;;;;;;29.33;6.72;;;;;;;;;;5073830;28;20092;-76
2022/03/30 13:36:38;;;;;;;29.85;6.55;;;;;;;;;;5073474;28;20028;-77
2022/03/30 13:39:04;;;;;;;42.95;6.75;;;;;;;;;;5073481;28;20056;-77
2022/03/30 13:41:29;;;;;;;38.92;6.93;;;;;;;;;;5106162;28;20024;-77
2022/03/30 13:43:55;;;;;;;32.80;6.68;;;;;;;;;;5075652;28;20024;-78
2022/03/30 13:46:22;;;;;;;27.80;6.55;;;;;;;;;;5089213;28;20374;-76
2022/03/30 13:48:47;;;;;;;31.15;6.75;;;;;;;;;;5073547;28;20099;-76
2022/03/30 13:51:13;;;;;;;46.70;7.75;;;;;;;;;;5089453;28;20107;-77
2022/03/30 13:53:38;;;;;;;38.95;6.53;;;;;;;;;;5088965;28;20514;-78
2022/03/30 13:56:05;;;;;;;31.25;6.82;;;;;;;;;;5089003;28;20039;-77
2022/03/30 13:58:31;;;;;;;44.70;7.85;;;;;;;;;;5073420;28;20024;-79
2022/03/30 14:00:57;;;;;;;37.40;7.65;;;;;;;;;;5072164;28;20392;-76
2022/03/30 14:03:22;;;;;;;37.08;7.30;;;;;;;;;;5106104;28;20017;-78
2022/03/30 14:05:48;;;;;;;42.10;8.27;;;;;;;;;;5108723;28;20028;-77
2022/03/30 14:08:13;;;;;;;37.42;7.97;;;;;;;;;;5091423;28;20032;-78
2022/03/30 14:10:39;;;;;;;32.33;7.10;;;;;;;;;;5109717;28;20025;-77
2022/03/30 14:13:05;;;;;;;25.55;6.50;;;;;;;;;;5109736;28;20342;-77
2022/03/30 14:15:31;;;;;;;32.10;6.85;;;;;;;;;;5076943;28;20361;-77
2022/03/30 14:17:57;;;;;;;27.10;6.78;;;;;;;;;;5076246;28;20029;-77
2022/03/30 14:20:22;;;;;;;44.17;8.10;;;;;;;;;;5075670;28;20043;-78
2022/03/30 14:22:49;;;;;;;36.25;8.02;;;;;;;;;;5076502;28;20031;-78
2022/03/30 14:25:14;;;;;;;27.20;7.38;;;;;;;;;;5076156;28;20123;-76
2022/03/30 14:27:40;;;;;;;35.58;6.85;;;;;;;;;;5075503;28;20170;-77
2022/03/30 14:30:06;;;;;;;35.30;6.45;;;;;;;;;;5075196;28;20044;-78
2022/03/30 14:32:32;;;;;;;34.38;7.47;;;;;;;;;;5076610;28;20446;-77
2022/03/30 14:34:57;;;;;;;28.92;6.70;;;;;;;;;;5076581;28;20136;-77
2022/03/30 14:37:23;;;;;;;25.52;6.70;;;;;;;;;;5075160;28;20029;-77
2022/03/30 14:39:48;;;;;;;29.30;7.10;;;;;;;;;;5075305;28;20036;-76
2022/03/30 14:42:14;;;;;;;43.80;7.72;;;;;;;;;;5075185;28;20033;-77
2022/03/30 14:44:40;;;;;;;29.40;7.18;;;;;;;;;;5094981;28;20044;-76
2022/03/30 14:47:05;;;;;;;24.63;5.72;;;;;;;;;;5092658;28;20036;-77
2022/03/30 14:49:31;;;;;;;44.67;7.18;;;;;;;;;;5108711;28;20032;-77
2022/03/30 14:51:56;;;;;;;24.80;6.07;;;;;;;;;;5108746;28;20033;-77
2022/03/30 14:54:22;;;;;;;29.17;5.93;;;;;;;;;;5108879;28;20510;-77
2022/03/30 14:56:47;;;;;;;35.47;6.95;;;;;;;;;;5074998;28;20029;-77
2022/03/30 14:59:13;;;;;;;31.08;6.28;;;;;;;;;;5091885;28;20036;-77
2022/03/30 15:01:39;;;;;;;32.35;6.32;;;;;;;;;;5108747;28;20024;-77
2022/03/30 15:04:04;;;;;;;28.10;6.75;;;;;;;;;;5076359;28;20028;-77